Time;durP1;ratioP1;P1;durP2;ratioP2;P2;SDS_P1;SDS_P2;PMS_P1;PMS_P2;Temp;Humidity;BMP_temperature;BMP_pressure;BME280_temperature;BME280_humidity;BME280_pressure;Samples;Min_cycle;Max_cycle;Signal;HPM_P1;HPM_P2
2021/01/25 00:01:46;;;;;;;3.95;1.50;;;15.50;54.90;;;;;;5030862;28;20462;-80
2021/01/25 00:04:11;;;;;;;3.85;1.80;;;15.50;54.40;;;;;;5031046;28;20547;-80
2021/01/25 00:06:37;;;;;;;2.67;1.38;;;15.40;54.30;;;;;;5030970;28;20474;-80
2021/01/25 00:09:03;;;;;;;2.88;1.50;;;15.40;54.40;;;;;;5030910;28;20026;-80
2021/01/25 00:11:29;;;;;;;2.33;1.30;;;15.40;54.40;;;;;;5030609;28;20120;-80
2021/01/25 00:13:54;;;;;;;2.05;1.27;;;15.40;54.40;;;;;;5035166;28;20100;-80
2021/01/25 00:16:20;;;;;;;2.92;1.23;;;15.40;54.40;;;;;;5040500;28;20032;-79
2021/01/25 00:18:45;;;;;;;3.50;1.50;;;15.40;54.40;;;;;;5044787;28;20041;-80
2021/01/25 00:21:11;;;;;;;3.33;1.58;;;15.30;54.40;;;;;;5029987;28;20534;-79
2021/01/25 00:23:37;;;;;;;3.67;1.42;;;15.30;54.40;;;;;;5030303;28;20029;-80
2021/01/25 00:26:02;;;;;;;3.83;1.95;;;15.30;54.40;;;;;;5029846;28;20029;-79
2021/01/25 00:28:28;;;;;;;2.53;1.60;;;15.30;54.50;;;;;;5030770;28;20029;-79
2021/01/25 00:30:53;;;;;;;2.90;1.45;;;15.30;54.50;;;;;;5030520;28;20025;-79
2021/01/25 00:33:19;;;;;;;2.28;1.35;;;15.20;54.40;;;;;;5031896;28;20120;-80
2021/01/25 00:35:44;;;;;;;2.92;1.40;;;15.20;54.50;;;;;;5033730;28;20087;-80
2021/01/25 00:38:12;;;;;;;2.40;1.40;;;15.20;54.50;;;;;;5047318;28;20493;-80
2021/01/25 00:40:38;;;;;;;2.28;1.10;;;15.20;54.50;;;;;;5054261;28;20507;-79
2021/01/25 00:43:04;;;;;;;2.53;0.98;;;15.20;54.50;;;;;;5034380;28;20026;-79
2021/01/25 00:45:29;;;;;;;2.28;1.42;;;15.20;54.50;;;;;;5051088;28;20078;-79
2021/01/25 00:47:55;;;;;;;3.28;1.50;;;15.10;54.50;;;;;;5054045;28;20025;-79
2021/01/25 00:50:23;;;;;;;2.78;1.17;;;15.10;54.60;;;;;;5054262;28;20116;-78
2021/01/25 00:52:49;;;;;;;2.10;1.35;;;15.10;54.60;;;;;;5054119;28;20031;-78
2021/01/25 00:55:15;;;;;;;2.97;1.17;;;15.10;54.60;;;;;;5034438;28;20030;-79
2021/01/25 00:57:44;;;;;;;3.42;1.20;;;15.10;54.70;;;;;;5033693;28;20555;-78
2021/01/25 01:00:10;;;;;;;2.58;1.20;;;15.00;55.10;;;;;;5034265;28;20035;-78
2021/01/25 01:02:37;;;;;;;2.65;1.33;;;15.00;54.60;;;;;;5033844;28;20070;-78
2021/01/25 01:05:07;;;;;;;2.28;1.20;;;15.00;54.60;;;;;;5034222;28;20056;-78
2021/01/25 01:07:34;;;;;;;3.40;1.38;;;15.00;54.50;;;;;;5032675;28;20018;-77
2021/01/25 01:10:00;;;;;;;2.45;1.23;;;15.00;54.60;;;;;;5034037;28;20488;-77
2021/01/25 01:12:26;;;;;;;2.40;1.13;;;15.00;55.20;;;;;;5033964;28;20059;-78
2021/01/25 01:14:51;;;;;;;4.25;1.83;;;14.90;54.60;;;;;;5048106;28;20532;-78
2021/01/25 01:17:17;;;;;;;2.83;1.52;;;14.90;54.60;;;;;;5053314;28;20083;-78
2021/01/25 01:19:43;;;;;;;3.10;1.58;;;14.90;54.60;;;;;;5053229;28;20044;-78
2021/01/25 01:22:08;;;;;;;4.43;1.02;;;14.90;54.60;;;;;;5053582;28;20022;-78
2021/01/25 01:24:34;;;;;;;2.72;1.25;;;14.90;54.60;;;;;;5052093;28;20028;-78
2021/01/25 01:26:59;;;;;;;2.58;1.65;;;14.90;54.70;;;;;;5053891;28;20032;-78
2021/01/25 01:29:25;;;;;;;3.10;1.15;;;14.80;54.60;;;;;;5053111;28;20032;-78
2021/01/25 01:31:51;;;;;;;2.88;1.25;;;14.80;54.60;;;;;;5033140;28;20425;-78
2021/01/25 01:34:16;;;;;;;2.30;1.35;;;14.80;54.60;;;;;;5033464;28;20497;-78
2021/01/25 01:36:42;;;;;;;2.72;1.42;;;14.80;55.20;;;;;;5033112;28;20025;-78
2021/01/25 01:39:07;;;;;;;3.75;1.50;;;14.80;54.60;;;;;;5032167;28;20046;-78
2021/01/25 01:41:40;;;;;;;2.67;1.38;;;14.80;54.70;;;;;;5032620;28;20031;-78
2021/01/25 01:44:10;;;;;;;3.00;1.48;;;14.80;54.70;;;;;;5039305;28;20024;-78
2021/01/25 01:46:39;;;;;;;2.63;1.30;;;14.70;54.60;;;;;;5028713;28;20037;-78
2021/01/25 01:49:04;;;;;;;2.22;1.13;;;14.70;54.70;;;;;;5033002;28;20409;-77
2021/01/25 01:51:30;;;;;;;2.05;1.10;;;14.70;55.20;;;;;;5033313;28;20037;-79
2021/01/25 01:53:57;;;;;;;2.80;1.02;;;14.70;54.70;;;;;;5032467;28;20032;-78
2021/01/25 01:56:23;;;;;;;2.30;1.40;;;14.70;54.70;;;;;;5032869;28;20029;-78
2021/01/25 01:58:49;;;;;;;2.25;1.20;;;14.70;54.70;;;;;;5032857;28;20025;-78
2021/01/25 02:01:14;;;;;;;2.33;1.20;;;14.70;54.70;;;;;;5039590;28;20551;-78
2021/01/25 02:03:40;;;;;;;1.92;1.02;;;14.60;54.70;;;;;;5052617;28;20044;-78
2021/01/25 02:06:08;;;;;;;1.20;0.90;;;14.60;54.70;;;;;;5041532;28;20022;-79
2021/01/25 02:08:37;;;;;;;2.47;1.38;;;14.60;54.70;;;;;;5046159;28;20029;-79
2021/01/25 02:11:03;;;;;;;2.35;1.30;;;14.60;54.70;;;;;;5052081;28;20074;-79
2021/01/25 02:13:30;;;;;;;2.35;1.10;;;14.60;54.70;;;;;;5031910;28;20025;-78
2021/01/25 02:15:59;;;;;;;3.13;1.35;;;14.60;54.80;;;;;;5032528;28;20104;-77
2021/01/25 02:18:27;;;;;;;1.98;1.25;;;14.60;54.80;;;;;;5032581;28;20033;-78
2021/01/25 02:20:52;;;;;;;2.15;1.02;;;14.60;54.80;;;;;;5032319;28;20017;-78
2021/01/25 02:23:27;;;;;;;2.47;1.20;;;14.60;54.80;;;;;;5033296;28;20033;-78
2021/01/25 02:26:17;;;;;;;1.75;1.10;;;14.50;54.80;;;;;;5032494;28;20025;-78
2021/01/25 02:28:42;;;;;;;1.73;1.15;;;14.50;54.80;;;;;;5032290;28;20113;-79
2021/01/25 02:31:11;;;;;;;2.60;1.50;;;14.50;54.80;;;;;;5032441;28;20549;-78
2021/01/25 02:33:43;;;;;;;3.40;1.50;;;14.50;55.30;;;;;;5032057;28;20098;-79
2021/01/25 02:36:10;;;;;;;1.52;1.00;;;14.50;54.80;;;;;;5032566;28;20028;-79
2021/01/25 02:38:38;;;;;;;1.77;1.00;;;14.50;54.80;;;;;;5032044;28;20032;-79
2021/01/25 02:41:05;;;;;;;2.13;1.10;;;14.50;54.80;;;;;;5032340;28;20028;-79
2021/01/25 02:43:31;;;;;;;2.40;1.27;;;14.50;54.80;;;;;;5032624;28;20114;-79
2021/01/25 02:45:58;;;;;;;1.63;1.05;;;14.40;54.80;;;;;;5032524;28;20393;-78
2021/01/25 02:48:24;;;;;;;1.83;1.20;;;14.40;54.80;;;;;;5032283;28;20374;-78
2021/01/25 02:50:52;;;;;;;1.75;1.20;;;14.40;54.80;;;;;;5031897;28;20022;-78
2021/01/25 02:53:19;;;;;;;2.05;1.20;;;14.40;54.80;;;;;;5031953;28;20041;-78
2021/01/25 02:55:45;;;;;;;2.35;1.40;;;14.40;54.80;;;;;;5031749;28;20036;-77
2021/01/25 02:58:13;;;;;;;2.67;1.30;;;14.40;54.90;;;;;;5032205;28;20060;-79
2021/01/25 03:00:39;;;;;;;1.95;1.00;;;14.40;54.80;;;;;;5031903;28;20021;-79
2021/01/25 03:03:05;;;;;;;1.85;1.00;;;14.40;54.90;;;;;;5031874;28;20072;-79
2021/01/25 03:05:31;;;;;;;2.60;1.10;;;14.40;54.90;;;;;;5032238;28;20037;-78
2021/01/25 03:07:58;;;;;;;3.42;1.27;;;14.40;54.90;;;;;;5031163;28;20038;-79
2021/01/25 03:10:23;;;;;;;2.05;1.08;;;14.30;54.90;;;;;;5032123;28;20520;-78
2021/01/25 03:12:49;;;;;;;2.92;1.30;;;14.30;54.90;;;;;;5031505;28;20026;-78
2021/01/25 03:15:18;;;;;;;2.63;1.00;;;14.30;54.90;;;;;;5031017;28;20053;-78
2021/01/25 03:17:43;;;;;;;2.20;1.23;;;14.30;54.90;;;;;;5031388;28;20116;-78
2021/01/25 03:20:10;;;;;;;3.75;1.40;;;14.30;54.90;;;;;;5030021;28;20132;-78
2021/01/25 03:22:35;;;;;;;2.10;1.40;;;14.30;54.90;;;;;;5042513;28;20536;-78
2021/01/25 03:25:03;;;;;;;2.67;1.52;;;14.30;54.90;;;;;;5037952;28;20034;-78
2021/01/25 03:27:28;;;;;;;1.92;1.15;;;14.30;55.00;;;;;;5031511;28;20071;-78
2021/01/25 03:29:54;;;;;;;2.35;1.02;;;14.30;55.00;;;;;;5030288;28;20045;-78
2021/01/25 03:32:20;;;;;;;1.83;0.95;;;14.30;55.00;;;;;;5033320;28;20030;-78
2021/01/25 03:34:45;;;;;;;1.83;1.10;;;14.30;55.00;;;;;;5038052;28;20029;-78
2021/01/25 03:37:11;;;;;;;2.10;1.10;;;14.20;55.00;;;;;;5031015;28;20394;-77
2021/01/25 03:39:37;;;;;;;2.40;1.33;;;14.20;55.60;;;;;;5030635;28;20124;-78
2021/01/25 03:42:04;;;;;;;2.30;1.00;;;14.20;55.00;;;;;;5030641;28;20025;-78
2021/01/25 03:44:29;;;;;;;2.05;1.17;;;14.20;55.00;;;;;;5031171;28;20029;-78
2021/01/25 03:46:55;;;;;;;2.03;1.10;;;14.20;55.00;;;;;;5030745;28;20036;-78
2021/01/25 03:49:22;;;;;;;1.98;1.20;;;14.20;55.00;;;;;;5030112;28;20208;-78
2021/01/25 03:51:48;;;;;;;2.13;1.00;;;14.20;55.00;;;;;;5038325;28;20090;-78
2021/01/25 03:54:14;;;;;;;1.80;1.30;;;14.20;55.00;;;;;;5050913;28;20021;-78
2021/01/25 03:56:40;;;;;;;1.70;0.90;;;14.20;55.10;;;;;;5050876;28;20068;-78
2021/01/25 03:59:06;;;;;;;1.73;1.00;;;14.10;55.00;;;;;;5046677;28;20080;-79
2021/01/25 04:01:32;;;;;;;2.50;1.10;;;14.20;55.10;;;;;;5030530;28;20030;-79
2021/01/25 04:03:58;;;;;;;2.40;1.20;;;14.10;55.00;;;;;;5030751;28;20029;-79
2021/01/25 04:06:24;;;;;;;2.00;0.90;;;14.10;55.10;;;;;;5030451;28;20528;-79
2021/01/25 04:08:49;;;;;;;3.03;1.13;;;14.10;55.10;;;;;;5033261;28;20029;-79
2021/01/25 04:11:16;;;;;;;2.00;1.10;;;14.10;55.10;;;;;;5034674;28;20428;-78
2021/01/25 04:13:42;;;;;;;1.92;1.17;;;14.10;55.10;;;;;;5034774;28;20041;-78
2021/01/25 04:16:08;;;;;;;2.00;1.00;;;14.10;55.10;;;;;;5034780;28;20024;-78
2021/01/25 04:18:34;;;;;;;1.92;1.05;;;14.10;55.10;;;;;;5034874;28;20045;-77
2021/01/25 04:21:00;;;;;;;2.50;1.00;;;14.10;55.10;;;;;;5035929;28;20017;-78
2021/01/25 04:23:25;;;;;;;2.33;0.93;;;14.10;55.10;;;;;;5054675;28;20028;-78
2021/01/25 04:25:51;;;;;;;2.03;1.00;;;14.10;55.10;;;;;;5037476;28;20091;-79
2021/01/25 04:28:17;;;;;;;1.70;1.00;;;14.10;55.10;;;;;;5034798;28;20079;-78
2021/01/25 04:30:42;;;;;;;1.70;0.88;;;14.00;55.10;;;;;;5033768;28;20076;-78
2021/01/25 04:33:08;;;;;;;2.13;0.80;;;14.00;55.10;;;;;;5049953;28;20522;-78
2021/01/25 04:35:39;;;;;;;1.50;0.90;;;14.00;55.10;;;;;;5051442;28;20033;-78
2021/01/25 04:38:05;;;;;;;2.22;0.90;;;14.00;55.10;;;;;;5034653;28;20025;-78
2021/01/25 04:40:31;;;;;;;1.80;0.70;;;14.00;55.10;;;;;;5034514;28;20040;-79
2021/01/25 04:42:58;;;;;;;1.17;0.88;;;14.00;55.10;;;;;;5034063;28;20033;-78
2021/01/25 04:45:24;;;;;;;2.20;1.00;;;14.00;55.10;;;;;;5034519;28;20021;-78
2021/01/25 04:47:52;;;;;;;1.63;1.10;;;14.00;55.20;;;;;;5034040;28;20076;-78
2021/01/25 04:50:18;;;;;;;1.25;0.75;;;14.00;55.20;;;;;;5034056;28;20040;-78
2021/01/25 04:52:46;;;;;;;1.27;0.90;;;13.90;55.10;;;;;;5048295;28;20033;-78
2021/01/25 04:55:12;;;;;;;1.55;1.02;;;14.00;55.20;;;;;;5054319;28;20017;-78
2021/01/25 04:57:38;;;;;;;1.40;0.98;;;14.00;55.20;;;;;;5038091;28;20055;-77
2021/01/25 05:00:08;;;;;;;1.45;0.98;;;13.90;55.70;;;;;;5034138;28;20556;-77
2021/01/25 05:02:37;;;;;;;1.83;1.17;;;13.90;55.20;;;;;;5033728;28;20052;-77
2021/01/25 05:05:05;;;;;;;1.38;0.90;;;13.90;55.20;;;;;;5033774;28;20518;-77
2021/01/25 05:07:31;;;;;;;1.40;1.20;;;14.00;55.30;;;;;;5033895;28;20072;-77
2021/01/25 05:09:57;;;;;;;2.00;0.88;;;13.90;55.70;;;;;;5032794;28;20064;-78
2021/01/25 05:12:22;;;;;;;2.22;0.80;;;13.90;55.20;;;;;;5033637;28;20025;-77
2021/01/25 05:14:48;;;;;;;1.60;0.93;;;13.90;55.30;;;;;;5033692;28;20030;-77
2021/01/25 05:17:15;;;;;;;2.38;1.20;;;13.90;55.30;;;;;;5033037;28;20040;-77
2021/01/25 05:19:45;;;;;;;1.42;0.82;;;13.90;55.30;;;;;;5032334;28;20556;-77
2021/01/25 05:22:20;;;;;;;1.52;0.85;;;13.90;55.30;;;;;;5033453;28;20510;-77
2021/01/25 05:24:50;;;;;;;2.25;0.80;;;13.90;55.30;;;;;;5033460;28;20030;-77
2021/01/25 05:27:23;;;;;;;3.17;1.10;;;13.90;55.30;;;;;;5033988;28;20024;-78
2021/01/25 05:29:50;;;;;;;2.05;0.90;;;13.90;55.30;;;;;;5033449;28;20064;-79
2021/01/25 05:32:18;;;;;;;1.33;0.80;;;13.90;55.30;;;;;;5032803;28;20029;-77
2021/01/25 05:34:48;;;;;;;1.77;1.00;;;13.90;55.30;;;;;;5033343;28;20102;-78
2021/01/25 05:37:18;;;;;;;1.48;0.90;;;13.90;55.30;;;;;;5033636;28;20024;-78
2021/01/25 05:39:47;;;;;;;1.45;0.90;;;13.80;55.20;;;;;;5033465;28;20179;-78
2021/01/25 05:42:14;;;;;;;2.33;0.93;;;13.80;55.20;;;;;;5033346;28;20107;-78
2021/01/25 05:44:40;;;;;;;2.28;1.02;;;13.80;55.20;;;;;;5032822;28;20065;-78
2021/01/25 05:47:10;;;;;;;1.77;0.98;;;13.80;55.20;;;;;;5033028;28;20030;-78
2021/01/25 05:49:38;;;;;;;2.72;1.13;;;13.80;55.20;;;;;;5033307;28;20044;-78
2021/01/25 05:52:05;;;;;;;2.58;1.27;;;13.80;55.30;;;;;;5032989;28;20076;-79
2021/01/25 05:54:31;;;;;;;1.63;0.88;;;13.80;55.20;;;;;;5033349;28;20041;-78
2021/01/25 05:56:57;;;;;;;2.28;1.13;;;13.80;55.20;;;;;;5032849;28;20497;-78
2021/01/25 05:59:23;;;;;;;2.25;1.33;;;13.80;55.20;;;;;;5032849;28;20059;-81
2021/01/25 06:01:49;;;;;;;2.92;1.30;;;13.80;55.20;;;;;;5032069;28;20568;-76
2021/01/25 06:04:23;;;;;;;1.67;1.05;;;13.80;55.20;;;;;;5041177;28;20021;-76
2021/01/25 06:07:01;;;;;;;1.48;0.90;;;13.70;55.20;;;;;;5052706;28;20028;-75
2021/01/25 06:09:51;;;;;;;1.70;1.10;;;13.70;55.70;;;;;;5034880;28;20041;-75
2021/01/25 06:12:22;;;;;;;1.70;0.90;;;13.80;55.10;;;;;;5032639;28;20028;-75
2021/01/25 06:14:53;;;;;;;1.63;1.13;;;13.90;55.10;;;;;;5032665;28;20072;-74
2021/01/25 06:17:19;;;;;;;2.70;1.33;;;13.90;55.10;;;;;;5032964;28;20029;-75
2021/01/25 06:19:47;;;;;;;2.97;1.23;;;13.90;55.10;;;;;;5032296;28;20041;-76
2021/01/25 06:22:12;;;;;;;2.25;1.17;;;14.00;55.10;;;;;;5032546;28;20401;-75
2021/01/25 06:24:39;;;;;;;1.52;1.00;;;14.00;55.00;;;;;;5032349;28;20034;-75
2021/01/25 06:27:05;;;;;;;2.15;1.23;;;14.10;55.00;;;;;;5032720;28;20032;-75
2021/01/25 06:29:31;;;;;;;2.20;1.30;;;14.10;55.00;;;;;;5031502;28;20033;-76
2021/01/25 06:31:59;;;;;;;2.67;1.25;;;14.20;55.00;;;;;;5032125;28;20029;-76
2021/01/25 06:34:28;;;;;;;2.58;1.70;;;14.30;54.90;;;;;;5032258;28;20033;-75
2021/01/25 06:36:55;;;;;;;1.70;0.90;;;14.30;54.80;;;;;;5032062;28;20390;-75
2021/01/25 06:39:24;;;;;;;2.17;1.17;;;14.40;54.80;;;;;;5041013;28;20068;-76
2021/01/25 06:42:02;;;;;;;2.08;1.33;;;14.50;54.80;;;;;;5051479;28;20033;-76
2021/01/25 06:44:29;;;;;;;1.83;1.17;;;14.60;54.80;;;;;;5052638;28;20048;-76
2021/01/25 06:46:57;;;;;;;2.95;1.67;;;14.60;54.60;;;;;;5052105;28;20386;-77
2021/01/25 06:49:24;;;;;;;1.88;1.30;;;14.70;54.60;;;;;;5051875;28;20024;-77
2021/01/25 06:51:52;;;;;;;2.30;1.25;;;14.80;54.60;;;;;;5051737;28;20112;-79
2021/01/25 06:54:22;;;;;;;1.80;1.20;;;14.90;54.50;;;;;;5050697;28;20025;-77
2021/01/25 06:56:52;;;;;;;2.88;1.33;;;14.90;54.40;;;;;;5044952;28;20021;-77
2021/01/25 06:59:30;;;;;;;2.13;1.33;;;15.10;54.30;;;;;;5031823;28;20038;-75
2021/01/25 07:01:56;;;;;;;2.47;1.38;;;15.10;54.30;;;;;;5050351;28;20025;-77
2021/01/25 07:04:23;;;;;;;2.40;1.55;;;15.20;54.20;;;;;;5036643;28;20506;-76
2021/01/25 07:06:54;;;;;;;2.70;1.80;;;15.30;54.20;;;;;;5030444;28;20457;-78
2021/01/25 07:09:30;;;;;;;3.72;1.48;;;15.30;54.10;;;;;;5031852;28;20026;-78
2021/01/25 07:12:03;;;;;;;3.92;2.65;;;15.40;54.10;;;;;;5031253;28;20021;-82
2021/01/25 07:14:30;;;;;;;4.60;2.65;;;15.50;54.10;;;;;;5031462;28;20033;-76
2021/01/25 07:16:57;;;;;;;17.60;5.60;;;15.60;54.20;;;;;;5031222;28;20498;-77
2021/01/25 07:19:24;;;;;;;12.15;4.70;;;15.70;54.50;;;;;;5031568;28;20033;-76
2021/01/25 07:21:52;;;;;;;24.98;8.98;;;15.80;55.00;;;;;;5031329;28;20027;-76
2021/01/25 07:24:25;;;;;;;12.80;5.00;;;15.90;54.60;;;;;;5036200;28;20523;-77
2021/01/25 07:26:52;;;;;;;9.05;4.93;;;16.00;54.80;;;;;;5051247;28;20507;-76
2021/01/25 07:29:18;;;;;;;10.95;4.38;;;16.10;55.00;;;;;;5051204;28;20469;-76
2021/01/25 07:31:44;;;;;;;9.05;4.28;;;16.20;55.30;;;;;;5050859;28;20120;-76
2021/01/25 07:34:11;;;;;;;7.47;3.63;;;16.30;55.20;;;;;;5051363;28;20140;-76
2021/01/25 07:36:37;;;;;;;11.45;3.92;;;16.40;55.20;;;;;;5051154;28;20059;-75
2021/01/25 07:39:07;;;;;;;8.25;3.95;;;16.50;55.10;;;;;;5034640;28;20084;-73
2021/01/25 07:41:34;;;;;;;8.65;4.10;;;16.60;55.00;;;;;;5031211;28;20017;-74
2021/01/25 07:44:01;;;;;;;9.13;5.13;;;16.70;54.80;;;;;;5031213;28;20400;-74
2021/01/25 07:46:27;;;;;;;10.85;4.97;;;16.80;54.90;;;;;;5031182;28;20551;-74
2021/01/25 07:48:54;;;;;;;9.32;5.43;;;16.90;54.90;;;;;;5036263;28;20104;-75
2021/01/25 07:51:28;;;;;;;10.52;5.72;;;16.80;54.60;;;;;;5033881;28;20504;-72
2021/01/25 07:53:55;;;;;;;6.32;4.97;;;16.70;54.40;;;;;;5031331;28;20040;-75
2021/01/25 07:56:25;;;;;;;8.18;4.75;;;16.70;54.50;;;;;;5030487;28;20032;-74
2021/01/25 07:59:09;;;;;;;9.13;5.10;;;16.70;54.50;;;;;;5030466;28;20083;-76
2021/01/25 08:01:57;;;;;;;6.70;4.47;;;16.70;54.20;;;;;;5029542;28;20449;-74
2021/01/25 08:04:31;;;;;;;7.43;4.80;;;16.60;53.90;;;;;;5035478;28;20551;-74
2021/01/25 08:06:59;;;;;;;6.22;3.85;;;16.60;53.80;;;;;;5043998;28;20020;-73
2021/01/25 08:09:26;;;;;;;6.25;4.30;;;16.60;53.80;;;;;;5030987;28;20485;-73
2021/01/25 08:11:52;;;;;;;7.00;4.30;;;16.50;53.80;;;;;;5029643;28;20028;-76
2021/01/25 08:14:28;;;;;;;5.25;3.97;;;16.50;53.80;;;;;;5030595;28;20134;-73
2021/01/25 08:17:01;;;;;;;7.55;3.78;;;16.40;53.60;;;;;;5029280;28;20029;-75
2021/01/25 08:19:55;;;;;;;5.80;3.60;;;16.40;53.40;;;;;;5030622;28;20045;-74
2021/01/25 08:22:32;;;;;;;4.93;3.88;;;16.40;53.40;;;;;;5033794;28;20025;-74
2021/01/25 08:25:01;;;;;;;7.28;3.80;;;16.40;53.30;;;;;;5032425;28;20520;-73
2021/01/25 08:27:30;;;;;;;6.38;3.85;;;16.40;53.20;;;;;;5030612;28;20030;-74
2021/01/25 08:30:12;;;;;;;6.63;3.88;;;16.30;53.00;;;;;;5030457;28;20029;-74
2021/01/25 08:32:47;;;;;;;6.07;3.60;;;16.30;53.10;;;;;;5029434;28;20025;-73
2021/01/25 08:35:14;;;;;;;6.45;3.70;;;16.30;53.00;;;;;;5042942;28;20389;-74
2021/01/25 08:37:39;;;;;;;4.72;3.22;;;16.20;53.00;;;;;;5050329;28;20029;-73
2021/01/25 08:40:33;;;;;;;5.20;3.08;;;16.20;52.90;;;;;;5050446;28;20028;-73
2021/01/25 08:42:59;;;;;;;4.63;2.88;;;16.10;52.80;;;;;;5031720;28;20521;-74
2021/01/25 08:45:27;;;;;;;6.85;3.72;;;16.10;52.80;;;;;;5050069;28;20059;-73
2021/01/25 08:48:06;;;;;;;5.80;3.25;;;16.10;52.80;;;;;;5041806;28;20523;-74
2021/01/25 08:50:33;;;;;;;4.40;3.30;;;16.00;52.80;;;;;;5010398;28;20053;-72
2021/01/25 08:53:00;;;;;;;3.50;2.75;;;16.00;53.40;;;;;;5010725;28;20022;-73
2021/01/25 08:55:30;;;;;;;4.20;3.45;;;16.00;52.90;;;;;;5028815;28;20025;-74
2021/01/25 08:57:55;;;;;;;5.40;3.67;;;15.90;53.00;;;;;;5024038;28;20030;-74
2021/01/25 09:00:27;;;;;;;5.28;3.45;;;15.90;53.20;;;;;;5034089;28;20056;-74
2021/01/25 09:02:59;;;;;;;6.45;3.08;;;15.90;53.20;;;;;;5033650;28;20500;-73
2021/01/25 09:05:25;;;;;;;4.15;3.42;;;15.80;53.10;;;;;;5034166;28;20080;-74
2021/01/25 09:07:52;;;;;;;4.00;3.25;;;15.80;53.70;;;;;;5033428;28;20021;-74
2021/01/25 09:10:18;;;;;;;5.70;3.80;;;15.80;53.60;;;;;;5033818;28;20440;-73
2021/01/25 09:12:43;;;;;;;5.05;3.67;;;15.70;53.00;;;;;;5033326;28;20028;-74
2021/01/25 09:15:10;;;;;;;6.35;4.65;;;15.70;53.00;;;;;;5033620;28;20397;-74
2021/01/25 09:17:36;;;;;;;4.68;3.70;;;15.70;52.90;;;;;;5036409;28;20489;-74
2021/01/25 09:20:06;;;;;;;5.40;4.15;;;15.70;52.90;;;;;;5052328;28;20025;-73
2021/01/25 09:22:32;;;;;;;5.25;3.85;;;15.60;52.90;;;;;;5051913;28;20112;-73
2021/01/25 09:24:59;;;;;;;6.28;4.03;;;15.60;52.80;;;;;;5053987;28;20496;-75
2021/01/25 09:27:24;;;;;;;5.10;3.70;;;15.60;52.90;;;;;;5053562;28;20048;-74
2021/01/25 09:29:50;;;;;;;4.10;3.70;;;15.60;52.90;;;;;;5053173;28;20057;-75
2021/01/25 09:32:15;;;;;;;4.18;3.28;;;15.50;52.90;;;;;;5053399;28;20025;-74
2021/01/25 09:34:41;;;;;;;4.97;3.50;;;15.50;52.90;;;;;;5053242;28;20061;-74
2021/01/25 09:37:09;;;;;;;5.50;4.00;;;15.50;52.90;;;;;;5040744;28;20028;-74
2021/01/25 09:39:36;;;;;;;4.95;3.50;;;15.50;52.90;;;;;;5032872;28;20034;-72
2021/01/25 09:42:02;;;;;;;5.68;3.70;;;15.50;52.90;;;;;;5033798;28;20021;-75
2021/01/25 09:44:27;;;;;;;6.40;4.07;;;15.50;52.80;;;;;;5033564;28;20060;-75
2021/01/25 09:46:53;;;;;;;5.68;3.92;;;15.50;52.80;;;;;;5032906;28;20053;-74
2021/01/25 09:49:19;;;;;;;5.30;3.20;;;15.50;52.70;;;;;;5034551;28;20038;-74
2021/01/25 09:51:46;;;;;;;4.63;3.60;;;15.50;52.60;;;;;;5052847;28;20032;-75
2021/01/25 09:54:12;;;;;;;3.85;3.38;;;15.50;52.60;;;;;;5053286;28;20029;-74
2021/01/25 09:56:37;;;;;;;4.78;3.65;;;15.50;52.60;;;;;;5046136;28;20029;-75
2021/01/25 09:59:03;;;;;;;5.82;4.07;;;15.50;52.60;;;;;;5034030;28;20034;-74
2021/01/25 10:01:30;;;;;;;6.18;3.33;;;15.50;52.60;;;;;;5046237;28;20029;-74
2021/01/25 10:03:55;;;;;;;4.40;3.70;;;15.40;52.70;;;;;;5032295;28;20109;-73
2021/01/25 10:06:21;;;;;;;4.05;3.33;;;15.40;52.70;;;;;;5032298;28;20115;-74
2021/01/25 10:08:47;;;;;;;4.18;3.45;;;15.40;52.70;;;;;;5032867;28;20485;-74
2021/01/25 10:11:13;;;;;;;5.43;3.72;;;15.40;52.80;;;;;;5032892;28;20022;-74
2021/01/25 10:13:39;;;;;;;5.85;3.85;;;15.30;52.70;;;;;;5032024;28;20036;-73
2021/01/25 10:16:05;;;;;;;4.93;3.15;;;15.30;52.80;;;;;;5032384;28;20026;-74
2021/01/25 10:18:31;;;;;;;4.70;3.75;;;15.30;52.80;;;;;;5032990;28;20099;-73
2021/01/25 10:20:58;;;;;;;4.82;3.72;;;15.30;52.80;;;;;;5032531;28;20030;-73
2021/01/25 10:23:25;;;;;;;6.55;3.80;;;15.20;52.80;;;;;;5032219;28;20478;-70
2021/01/25 10:25:51;;;;;;;4.70;3.92;;;15.20;52.80;;;;;;5032551;28;20071;-71
2021/01/25 10:28:18;;;;;;;5.22;3.88;;;15.30;52.90;;;;;;5032015;28;20034;-70
2021/01/25 10:30:45;;;;;;;5.60;3.60;;;15.20;52.80;;;;;;5030918;28;20087;-72
2021/01/25 10:33:10;;;;;;;5.05;3.92;;;15.20;52.80;;;;;;5032549;28;20063;-72
2021/01/25 10:35:37;;;;;;;8.43;3.72;;;15.20;52.80;;;;;;5032105;28;20033;-72
2021/01/25 10:38:04;;;;;;;4.22;3.60;;;15.30;52.90;;;;;;5032049;28;20031;-72
2021/01/25 10:40:30;;;;;;;5.57;3.85;;;15.30;52.90;;;;;;5037155;28;20068;-71
2021/01/25 10:42:56;;;;;;;4.55;3.72;;;15.30;52.90;;;;;;5026988;28;20057;-72
2021/01/25 10:45:22;;;;;;;4.03;3.25;;;15.30;52.90;;;;;;5012295;28;20088;-73
2021/01/25 10:47:49;;;;;;;5.47;3.13;;;15.40;52.90;;;;;;5031599;28;20026;-72
2021/01/25 10:50:15;;;;;;;3.22;2.80;;;15.50;52.90;;;;;;5032137;28;20033;-72
2021/01/25 10:52:41;;;;;;;4.70;2.60;;;15.50;52.90;;;;;;5027065;28;20028;-71
2021/01/25 10:55:08;;;;;;;4.68;2.75;;;15.60;52.80;;;;;;5030359;28;20034;-71
2021/01/25 10:57:34;;;;;;;3.03;2.40;;;15.80;52.70;;;;;;5012660;28;20032;-70
2021/01/25 11:00:11;;;;;;;3.42;2.35;;;15.90;53.00;;;;;;5027247;28;20037;-70
2021/01/25 11:02:38;;;;;;;3.42;2.35;;;16.10;52.40;;;;;;5030248;28;20099;-74
2021/01/25 11:05:06;;;;;;;3.83;2.83;;;16.30;52.20;;;;;;5031768;28;20028;-71
2021/01/25 11:07:32;;;;;;;4.03;2.70;;;16.50;51.90;;;;;;5034722;28;20029;-71
2021/01/25 11:09:58;;;;;;;3.38;2.60;;;16.60;51.60;;;;;;5038808;28;20048;-71
2021/01/25 11:12:24;;;;;;;3.60;2.47;;;16.80;51.20;;;;;;5030103;28;20034;-69
2021/01/25 11:14:49;;;;;;;4.90;1.95;;;16.90;51.30;;;;;;5029849;28;20395;-70
2021/01/25 11:17:15;;;;;;;2.50;1.80;;;17.00;51.00;;;;;;5030151;28;20029;-73
2021/01/25 11:19:40;;;;;;;2.88;2.38;;;17.10;50.80;;;;;;5029303;28;20038;-72
2021/01/25 11:22:06;;;;;;;4.25;2.00;;;17.20;51.40;;;;;;5023994;28;20083;-72
2021/01/25 11:24:32;;;;;;;2.38;1.70;;;17.40;50.70;;;;;;5029211;28;20029;-73
2021/01/25 11:26:59;;;;;;;2.53;1.52;;;17.60;50.40;;;;;;5030408;28;20029;-75
2021/01/25 11:29:28;;;;;;;4.50;2.22;;;17.80;50.30;;;;;;5029841;28;20104;-74
2021/01/25 11:31:57;;;;;;;6.60;2.03;;;18.00;50.00;;;;;;5029644;28;20041;-78
2021/01/25 11:34:22;;;;;;;5.00;2.10;;;18.40;49.60;;;;;;5027236;28;20025;-74
2021/01/25 11:36:48;;;;;;;3.75;2.40;;;18.80;49.20;;;;;;5029563;28;20038;-78
2021/01/25 11:39:14;;;;;;;17.75;3.60;;;18.80;48.80;;;;;;5030986;28;20523;-78
2021/01/25 11:41:39;;;;;;;20.35;5.28;;;18.90;49.60;;;;;;5028518;28;20030;-76
2021/01/25 11:44:05;;;;;;;26.58;5.55;;;18.90;51.20;;;;;;5030295;28;20057;-77
2021/01/25 11:46:31;;;;;;;22.75;4.85;;;18.80;52.70;;;;;;5031448;28;20555;-77
2021/01/25 11:48:56;;;;;;;23.30;4.53;;;18.60;52.10;;;;;;5030688;28;20040;-75
2021/01/25 11:51:22;;;;;;;16.05;4.05;;;18.60;53.90;;;;;;5031145;28;20034;-76
2021/01/25 11:53:47;;;;;;;14.13;3.67;;;18.50;53.00;;;;;;5031062;28;20536;-73
2021/01/25 11:56:13;;;;;;;22.33;3.58;;;18.40;53.40;;;;;;5031194;28;20030;-74
2021/01/25 11:58:39;;;;;;;17.27;3.20;;;18.40;53.70;;;;;;5030900;28;20077;-73
2021/01/25 12:01:04;;;;;;;15.13;2.80;;;18.60;53.90;;;;;;5018054;28;20026;-75
2021/01/25 12:03:31;;;;;;;20.02;4.35;;;19.00;53.80;;;;;;5011737;28;20037;-73
2021/01/25 12:05:57;;;;;;;15.40;3.22;;;18.90;53.40;;;;;;5011530;28;20018;-75
2021/01/25 12:08:22;;;;;;;14.90;3.30;;;18.80;53.50;;;;;;5031907;28;20040;-74
2021/01/25 12:10:48;;;;;;;15.80;3.13;;;18.70;53.80;;;;;;5038083;28;20413;-75
2021/01/25 12:13:14;;;;;;;17.85;2.92;;;18.70;54.20;;;;;;5030366;28;20059;-74
2021/01/25 12:15:39;;;;;;;19.20;3.00;;;18.70;54.20;;;;;;5030739;28;20096;-74
2021/01/25 12:18:05;;;;;;;17.58;3.40;;;18.70;54.30;;;;;;5029026;28;20482;-74
2021/01/25 12:20:30;;;;;;;22.77;3.78;;;18.80;53.70;;;;;;5028410;28;20037;-73
2021/01/25 12:22:56;;;;;;;17.50;3.78;;;19.00;52.60;;;;;;5031734;28;20473;-74
2021/01/25 12:25:22;;;;;;;27.17;4.10;;;19.00;52.30;;;;;;5030653;28;20379;-73
2021/01/25 12:27:49;;;;;;;27.60;4.78;;;18.90;52.20;;;;;;5030597;28;20393;-73
2021/01/25 12:30:15;;;;;;;32.15;5.38;;;18.90;52.50;;;;;;5032949;28;20040;-72
2021/01/25 12:32:42;;;;;;;36.45;5.10;;;19.10;52.70;;;;;;5034551;28;20026;-75
2021/01/25 12:35:10;;;;;;;25.80;4.90;;;19.40;52.00;;;;;;5034060;28;20113;-72
2021/01/25 12:37:37;;;;;;;28.80;4.80;;;19.90;51.30;;;;;;5032957;28;20022;-73
2021/01/25 12:40:04;;;;;;;25.50;3.85;;;19.90;50.40;;;;;;5034726;28;20099;-72
2021/01/25 12:42:29;;;;;;;22.60;5.50;;;19.80;51.10;;;;;;5034843;28;20021;-73
2021/01/25 12:44:55;;;;;;;30.35;5.10;;;21.60;49.80;;;;;;5034416;28;20048;-74
2021/01/25 12:47:21;;;;;;;18.33;3.72;;;21.40;48.00;;;;;;5033691;28;20021;-73